Saint-Jovite, Quebec

12:40 PM EDT on July 25, 2016 (GMT -0400)
Lac a L'ile | | Change Station

Elev 1657 ft 46.20 °N, 74.33 °W | Updated 8 seconds ago

Light Rain
Light Rain
61.9 °F
Feels Like 61.9 °F
N
0.2
Wind Variable Wind from SSW
Gusts 2.5 mph

Today
High -- | Low -- °F
--% Chance of Precip.
Yesterday
High -- | Low -- °F
Precip. -- in
Pressure 29.83 in
Visibility 20.0 miles
Clouds Few 600 ft
Few 1500 ft
Few 3000 ft
Mostly Cloudy 5000 ft
Overcast 8000 ft
Dew Point 60 °F
Humidity 95%
Rainfall 0.66 in
Snow Depth Not available.
5:32 AM 8:35 PM
Waning Gibbous, 64% visible
METAR CYMX 251600Z 07004KT 20SM -RA FEW006 FEW015 FEW030 BKN050 OVC080 20/19 A2982 RMK SF1CF1SC2SC4AC2 SF TR CF TR PRESFR SLP099 DENSITY ALT 1000FT
Pressure 29.83 in
Visibility 20.0 miles
Clouds Few 600 ft
Few 1500 ft
Few 3000 ft
Mostly Cloudy 5000 ft
Overcast 8000 ft
Dew Point 60 °F
Humidity 95%
Rainfall 0.66 in
Snow Depth Not available.
5:32 AM 8:35 PM
Waning Gibbous, 64% visible
METAR CYMX 251600Z 07004KT 20SM -RA FEW006 FEW015 FEW030 BKN050 OVC080 20/19 A2982 RMK SF1CF1SC2SC4AC2 SF TR CF TR PRESFR SLP099 DENSITY ALT 1000FT
Record highs are possible for parts of the Northeast Monday and Tuesday, as parts of the central U.S. take a little breather from the worst of summer's dog day heat.

Expansive high pressure in the upper atmosphere will focus on parts of the East and West this week, sending heat indices well into the triple digits from the Mid-Atlantic states into the South.

10-Day Weather Forecast

Almanac

Astronomy

Jul. 25, 2016 Rise Set
Actual Time
Civil Twilight
Nautical Twilight
Astronomical Twilight
Moon
Length of Visible Light
Length of Day
Tomorrow will be .
, % of the Moon is Illuminated

Today's Extremes

Country Highs Country Lows

Community

WunderPhotos

Upload Photos

1,927,345 photos uploaded!

WunderBlog® & News

Nearby

Air Quality

  Air Quality AQ Index Pollutant
Not available.

Snow Depth

Station Depth Elevation

Earthquake Activity

City Distance Mag. Time & Date
Minimum magnitude displayed is 2.5.

Coastal Water Temperatures

Place Temperature

Stations

Nearby Weather Stations

Station Location Temp. Windchill Dew Point Humidity Wind Precip. Elev Updated Type
                   

Watches & Warnings

There are currently no watches in effect.